Time;durP1;ratioP1;P1;durP2;ratioP2;P2;SDS_P1;SDS_P2;PMS_P1;PMS_P2;Temp;Humidity;BMP_temperature;BMP_pressure;BME280_temperature;BME280_humidity;BME280_pressure;Samples;Min_cycle;Max_cycle;Signal;HPM_P1;HPM_P2
2022/06/09 00:03:33;;;;;;;16.58;12.10;;;;;;;15.72;76.09;99364.56;30976174;28;96732;-64
2022/06/09 00:18:33;;;;;;;15.17;11.60;;;;;;;15.59;77.06;99353.97;30992087;28;97302;-66
2022/06/09 00:33:34;;;;;;;15.85;10.88;;;;;;;15.54;77.69;99344.72;30995220;28;96730;-64
2022/06/09 00:48:50;;;;;;;13.00;10.40;;;;;;;15.53;78.57;99321.63;30993972;28;96896;-64
2022/06/09 01:03:56;;;;;;;13.13;10.40;;;;;;;15.60;78.88;99318.03;30992249;28;97600;-64
2022/06/09 01:19:35;;;;;;;15.70;12.17;;;;;;;15.56;79.57;99320.34;30990168;28;96767;-64
2022/06/09 01:35:14;;;;;;;16.83;10.90;;;;;;;15.51;79.99;99301.41;30989336;28;96996;-64
2022/06/09 01:50:23;;;;;;;15.07;11.67;;;;;;;15.44;80.40;99289.94;30966335;28;97412;-65
2022/06/09 02:05:29;;;;;;;15.00;12.13;;;;;;;15.52;80.74;99282.38;30986858;28;96870;-66
2022/06/09 02:20:30;;;;;;;17.27;13.13;;;;;;;15.64;80.86;99287.03;30984509;28;97486;-64
2022/06/09 02:35:31;;;;;;;21.17;14.98;;;;;;;15.73;80.78;99296.38;30982995;28;97246;-66
2022/06/09 02:50:32;;;;;;;20.20;13.70;;;;;;;15.68;80.62;99323.09;30982646;28;96599;-65
2022/06/09 03:05:35;;;;;;;18.37;13.57;;;;;;;15.65;81.00;99339.66;30980648;28;96681;-65
2022/06/09 03:20:35;;;;;;;18.47;14.33;;;;;;;15.73;81.36;99347.41;30977970;28;97671;-65
2022/06/09 03:35:36;;;;;;;19.95;14.77;;;;;;;15.98;81.28;99351.88;30978222;28;96960;-65
2022/06/09 03:50:37;;;;;;;22.05;14.52;;;;;;;16.16;81.56;99351.84;30973974;28;97160;-65
2022/06/09 04:05:37;;;;;;;17.38;14.02;;;;;;;16.31;81.40;99350.63;30972317;28;96664;-65
2022/06/09 04:20:37;;;;;;;20.48;14.75;;;;;;;16.41;81.03;99357.06;30972121;28;97287;-66
2022/06/09 04:35:38;;;;;;;19.92;14.85;;;;;;;16.53;81.17;99357.13;30970248;28;98267;-67
2022/06/09 04:50:40;;;;;;;18.40;13.65;;;;;;;16.66;81.35;99356.09;30969260;28;96756;-66
2022/06/09 05:05:41;;;;;;;;;;;;;;;16.86;81.27;99371.91;30985298;28;101403;-68
2022/06/09 05:20:42;;;;;;;20.87;14.30;;;;;;;16.86;80.86;99377.28;30985499;28;97937;-65
2022/06/09 05:35:43;;;;;;;19.73;15.13;;;;;;;17.16;81.70;99376.41;30982848;28;96709;-67
2022/06/09 05:50:43;;;;;;;19.50;15.82;;;;;;;17.76;81.46;99394.16;30974802;28;96859;-67
2022/06/09 06:21:02;;;;;;;21.00;16.13;;;;;;;18.45;80.04;99411.44;30976045;28;97097;-64
2022/06/09 06:36:03;;;;;;;24.33;15.77;;;;;;;19.28;78.83;99414.50;30981486;28;97066;-61
2022/06/09 06:51:05;;;;;;;17.77;14.15;;;;;;;20.25;77.17;99411.47;30979877;28;97336;-61
2022/06/09 07:06:06;;;;;;;17.00;14.23;;;;;;;21.33;74.57;99408.97;30978304;28;97656;-62
2022/06/09 07:21:07;;;;;;;13.47;10.70;;;;;;;22.62;70.37;99432.09;30974959;28;96684;-62
2022/06/09 07:36:16;;;;;;;12.40;10.23;;;;;;;23.10;67.29;99444.63;30972436;28;97112;-61
2022/06/09 07:51:17;;;;;;;13.97;10.80;;;;;;;24.04;63.20;99432.53;30966320;28;96869;-63
2022/06/09 08:06:18;;;;;;;12.10;10.77;;;;;;;25.33;59.85;99438.84;30858354;28;97759;-62
2022/06/09 08:21:18;;;;;;;13.25;9.02;;;;;;;26.11;54.23;99448.97;30859056;28;96829;-62
2022/06/09 08:36:18;;;;;;;13.43;9.73;;;;;;;25.50;53.04;99456.66;30983065;28;97388;-65
2022/06/09 08:51:38;;;;;;;11.27;10.10;;;;;;;25.54;53.24;99460.44;30989299;28;96745;-64
2022/06/09 09:06:41;;;;;;;12.00;9.70;;;;;;;25.47;52.63;99479.06;30987613;28;97696;-65
2022/06/09 09:21:55;;;;;;;15.23;9.20;;;;;;;25.25;52.45;99480.31;30988134;28;96840;-66
2022/06/09 09:37:21;;;;;;;10.77;8.10;;;;;;;25.82;51.60;99479.78;30985841;28;97205;-66
2022/06/09 09:52:29;;;;;;;8.83;7.50;;;;;;;26.06;49.69;99495.41;30973960;28;97009;-67
2022/06/09 10:23:03;;;;;;;11.60;8.30;;;;;;;27.33;46.81;99511.13;30980912;28;97025;-68
2022/06/09 10:38:10;;;;;;;9.03;7.80;;;;;;;28.62;43.75;99499.72;30982360;28;96725;-64
2022/06/09 11:09:19;;;;;;;10.10;9.00;;;;;;;28.09;42.55;99503.81;30976830;28;96662;-68
2022/06/09 11:24:31;;;;;;;11.63;8.33;;;;;;;27.27;43.73;99495.09;30971905;28;97148;-69
2022/06/09 11:39:47;;;;;;;9.23;7.93;;;;;;;26.43;45.28;99499.31;30972713;28;96752;-69
2022/06/09 11:54:53;;;;;;;10.93;7.47;;;;;;;25.70;45.86;99498.47;30968654;28;97131;-67
2022/06/09 12:10:21;;;;;;;7.60;6.43;;;;;;;25.41;46.73;99504.72;30974979;28;97926;-67
2022/06/09 12:25:32;;;;;;;9.33;6.77;;;;;;;26.09;45.94;99512.00;30983295;28;97052;-66
2022/06/09 12:40:39;;;;;;;6.67;5.70;;;;;;;26.16;45.63;99511.66;30988797;28;97274;-68
2022/06/09 12:55:46;;;;;;;9.00;5.97;;;;;;;26.20;45.12;99518.16;30980729;28;96785;-66
2022/06/09 13:11:04;;;;;;;9.97;6.33;;;;;;;26.00;45.20;99528.16;30974284;28;97268;-66
2022/06/09 13:26:06;;;;;;;5.57;4.70;;;;;;;26.09;43.34;99512.00;30948515;28;97059;-65
2022/06/09 13:41:16;;;;;;;6.33;4.80;;;;;;;26.27;42.04;99517.81;31040007;28;96667;-66
2022/06/09 13:56:20;;;;;;;6.43;5.20;;;;;;;26.43;41.81;99523.91;31031492;28;97327;-65
2022/06/09 14:11:27;;;;;;;8.57;5.37;;;;;;;26.11;42.52;99549.94;31001088;28;97473;-65
2022/06/09 14:26:31;;;;;;;5.40;4.30;;;;;;;25.58;44.16;99567.84;31032280;28;97283;-69
2022/06/09 14:41:32;;;;;;;6.57;4.00;;;;;;;25.12;44.29;99584.50;31031057;28;97601;-65
2022/06/09 14:56:38;;;;;;;9.00;6.60;;;;;;;25.02;46.18;99579.13;31034906;28;96985;-71
2022/06/09 15:11:39;;;;;;;6.33;5.23;;;;;;;25.57;45.68;99601.66;31037759;28;97607;-65
2022/06/09 15:26:39;;;;;;;7.40;4.85;;;;;;;25.43;45.28;99596.03;31006653;28;96846;-70
2022/06/09 15:41:39;;;;;;;5.55;4.63;;;;;;;25.19;45.20;99612.25;30968627;28;96820;-64
2022/06/09 15:56:40;;;;;;;6.32;4.70;;;;;;;25.00;46.44;99642.06;30973093;28;97572;-66
2022/06/09 16:11:40;;;;;;;6.03;5.13;;;;;;;24.55;47.03;99671.88;30954365;28;98091;-64
2022/06/09 16:26:40;;;;;;;7.10;6.38;;;;;;;24.15;49.45;99676.28;30927986;28;104566;-64
2022/06/09 16:41:41;;;;;;;9.38;6.72;;;;;;;24.19;50.73;99707.31;30953034;28;97812;-65
2022/06/09 16:56:42;;;;;;;7.60;6.40;;;;;;;23.63;50.68;99725.19;30975172;28;97217;-66
2022/06/09 17:11:42;;;;;;;6.38;4.70;;;;;;;22.72;53.10;99727.22;30981826;28;96719;-66
2022/06/09 17:26:43;;;;;;;5.63;3.58;;;;;;;22.04;54.36;99735.09;30980426;28;96721;-71
2022/06/09 17:41:43;;;;;;;5.73;3.17;;;;;;;21.58;55.91;99754.41;30978396;28;96959;-64
2022/06/09 17:56:44;;;;;;;6.93;3.17;;;;;;;21.54;57.05;99770.38;30973840;28;97008;-64
2022/06/09 18:11:44;;;;;;;4.33;2.63;;;;;;;21.54;56.77;99796.63;30974113;28;97338;-67
2022/06/09 18:26:48;;;;;;;5.83;2.13;;;;;;;21.37;57.32;99829.19;30977769;28;96750;-67
2022/06/09 18:41:49;;;;;;;3.97;2.77;;;;;;;21.25;57.72;99848.25;30975545;28;97179;-65
2022/06/09 18:56:50;;;;;;;4.23;2.10;;;;;;;20.95;57.19;99839.44;30975040;28;97565;-65
2022/06/09 19:11:50;;;;;;;6.78;2.03;;;;;;;20.35;58.72;99870.59;30969346;28;96769;-65
2022/06/09 19:26:51;;;;;;;6.78;2.22;;;;;;;20.12;60.24;99879.66;30968795;28;97109;-67
2022/06/09 19:41:51;;;;;;;6.78;2.40;;;;;;;20.67;59.39;99907.16;30961360;28;97167;-67
2022/06/09 19:56:51;;;;;;;6.18;2.60;;;;;;;20.49;59.50;99917.13;30969841;28;96788;-72
2022/06/09 20:11:51;;;;;;;3.88;2.60;;;;;;;20.27;60.26;99946.72;30968097;28;96763;-66
2022/06/09 20:26:52;;;;;;;3.63;2.55;;;;;;;20.33;60.57;99963.91;30970917;28;97782;-67
2022/06/09 20:41:52;;;;;;;4.57;2.40;;;;;;;19.83;61.41;99968.00;30989464;28;97558;-67
2022/06/09 20:56:54;;;;;;;3.45;2.10;;;;;;;19.31;62.98;99991.09;30987182;28;97150;-64
2022/06/09 21:27:13;;;;;;;2.70;2.00;;;;;;;18.71;63.79;100002.75;30951285;28;96776;-64
2022/06/09 21:42:14;;;;;;;3.67;2.13;;;;;;;18.34;64.60;100000.13;30968181;28;97610;-64
2022/06/09 21:57:15;;;;;;;5.17;3.10;;;;;;;18.10;65.22;100021.56;30985210;28;96692;-64
2022/06/09 22:12:16;;;;;;;5.22;2.88;;;;;;;18.02;66.17;100032.66;30983829;28;96728;-64
2022/06/09 22:27:16;;;;;;;7.88;3.17;;;;;;;17.74;66.72;100050.06;30982628;28;97714;-69
2022/06/09 22:42:17;;;;;;;5.50;3.00;;;;;;;17.64;67.49;100061.34;30981144;28;97538;-64
2022/06/09 22:57:18;;;;;;;6.23;3.83;;;;;;;17.59;67.90;100069.25;30979541;28;96636;-64
2022/06/09 23:12:18;;;;;;;4.07;3.42;;;;;;;17.55;68.08;100082.34;30977770;28;97690;-65
2022/06/09 23:27:20;;;;;;;5.28;3.65;;;;;;;17.51;68.48;100096.44;30978792;28;99924;-68
2022/06/09 23:42:21;;;;;;;6.23;4.10;;;;;;;17.46;68.46;100097.13;30979061;28;96712;-64
2022/06/09 23:57:21;;;;;;;5.95;3.60;;;;;;;17.45;68.91;100106.22;30977798;28;96752;-65
